Time;durP1;ratioP1;P1;durP2;ratioP2;P2;SDS_P1;SDS_P2;PMS_P1;PMS_P2;Temp;Humidity;BMP_temperature;BMP_pressure;BME280_temperature;BME280_humidity;BME280_pressure;Samples;Min_cycle;Max_cycle;Signal;HPM_P1;HPM_P2
2022/05/07 00:02:16;;;;;;;7.30;2.72;;;;;;;12.25;100.00;102064.47;5034887;28;20712;-79
2022/05/07 00:04:43;;;;;;;3.97;2.83;;;;;;;12.23;100.00;102062.94;5025819;28;20519;-76
2022/05/07 00:07:09;;;;;;;4.95;2.60;;;;;;;12.15;100.00;102066.19;5027010;28;20049;-77
2022/05/07 00:09:35;;;;;;;6.30;2.50;;;;;;;12.07;100.00;102061.56;5021170;28;20490;-78
2022/05/07 00:12:01;;;;;;;6.47;2.60;;;;;;;12.05;100.00;102067.88;5017316;28;20034;-77
2022/05/07 00:14:27;;;;;;;5.53;2.60;;;;;;;12.00;100.00;102065.63;5029635;28;20063;-78
2022/05/07 00:19:37;;;;;;;3.08;2.53;;;;;;;11.89;100.00;102070.88;5019842;28;20095;-79
2022/05/07 00:22:03;;;;;;;7.78;2.35;;;;;;;11.87;100.00;102071.00;5011468;28;20041;-77
2022/05/07 00:24:29;;;;;;;5.30;2.80;;;;;;;11.86;100.00;102061.44;4992701;28;20041;-77
2022/05/07 00:26:55;;;;;;;7.43;3.03;;;;;;;11.74;100.00;102056.34;5028000;28;20399;-76
2022/05/07 00:29:20;;;;;;;6.30;2.90;;;;;;;11.77;100.00;102058.69;5011130;28;20052;-80
2022/05/07 00:31:46;;;;;;;5.50;3.08;;;;;;;11.71;100.00;102062.66;5011833;28;20044;-78
2022/05/07 00:34:12;;;;;;;4.95;3.20;;;;;;;11.67;100.00;102062.06;4995278;28;20037;-77
2022/05/07 00:36:37;;;;;;;6.63;4.60;;;;;;;11.58;100.00;102069.84;4994442;28;20075;-77
2022/05/07 00:39:03;;;;;;;12.70;4.78;;;;;;;11.44;100.00;102049.91;5027423;28;20091;-79
2022/05/07 00:41:29;;;;;;;9.68;4.47;;;;;;;11.47;100.00;102065.41;5015056;28;20093;-81
2022/05/07 00:43:55;;;;;;;8.13;4.57;;;;;;;11.35;100.00;102055.88;5022739;28;20045;-79
2022/05/07 00:46:23;;;;;;;8.48;4.75;;;;;;;11.32;100.00;102059.59;5007202;28;20053;-77
2022/05/07 00:48:49;;;;;;;9.30;4.88;;;;;;;11.29;100.00;102059.81;5024474;28;20124;-79
2022/05/07 00:51:33;;;;;;;6.20;4.15;;;;;;;11.33;100.00;102063.88;5009323;28;20080;-78
2022/05/07 00:54:00;;;;;;;8.38;4.20;;;;;;;11.33;100.00;102063.03;4995407;28;20251;-77
2022/05/07 00:56:25;;;;;;;8.02;4.57;;;;;;;11.36;100.00;102063.66;5009607;28;20372;-77
2022/05/07 00:58:51;;;;;;;7.40;4.13;;;;;;;11.37;100.00;102064.47;5004126;28;20036;-78
2022/05/07 01:01:17;;;;;;;10.05;4.38;;;;;;;11.30;100.00;102049.19;5006645;28;20025;-79
2022/05/07 01:03:45;;;;;;;10.23;4.63;;;;;;;11.35;100.00;102056.72;5015098;28;20091;-77
2022/05/07 01:06:13;;;;;;;6.80;4.07;;;;;;;11.37;100.00;102059.22;5014769;28;20047;-79
2022/05/07 01:08:41;;;;;;;6.80;4.65;;;;;;;11.38;100.00;102047.78;5011995;28;20033;-79
2022/05/07 01:11:07;;;;;;;8.35;4.50;;;;;;;11.41;100.00;102068.53;5029716;28;20441;-79
2022/05/07 01:13:33;;;;;;;8.35;4.25;;;;;;;11.38;100.00;102053.03;5012044;28;20040;-80
2022/05/07 01:15:59;;;;;;;9.20;4.15;;;;;;;11.36;100.00;102047.88;5011835;28;20034;-79
2022/05/07 01:18:30;;;;;;;9.52;3.92;;;;;;;11.26;100.00;102039.03;5012670;28;20335;-79
2022/05/07 01:20:58;;;;;;;9.93;4.25;;;;;;;11.25;100.00;102043.47;5019107;28;20033;-78
2022/05/07 01:23:24;;;;;;;8.10;4.30;;;;;;;11.20;100.00;102048.22;5013728;28;20849;-80
2022/05/07 01:25:50;;;;;;;7.15;4.20;;;;;;;11.09;100.00;102041.19;5014135;28;20529;-79
2022/05/07 01:28:16;;;;;;;6.63;4.10;;;;;;;11.06;100.00;102049.28;5014262;28;20554;-76
2022/05/07 01:30:42;;;;;;;6.05;3.97;;;;;;;10.96;100.00;102044.84;5021686;28;20112;-80
2022/05/07 01:33:07;;;;;;;7.35;4.30;;;;;;;10.83;100.00;102037.94;5015867;28;20180;-78
2022/05/07 01:35:34;;;;;;;8.00;4.35;;;;;;;10.74;100.00;102043.88;5011094;28;20069;-79
2022/05/07 01:37:59;;;;;;;13.13;4.78;;;;;;;10.64;100.00;102045.50;5017257;28;20124;-78
2022/05/07 01:40:30;;;;;;;8.48;4.60;;;;;;;10.60;100.00;102039.66;5007626;28;20061;-79
2022/05/07 01:42:56;;;;;;;7.60;3.92;;;;;;;10.55;100.00;102041.81;5011877;28;20546;-79
2022/05/07 01:45:23;;;;;;;7.97;4.10;;;;;;;10.56;100.00;102037.38;5017352;28;20383;-77
2022/05/07 01:50:39;;;;;;;9.95;4.50;;;;;;;10.49;100.00;102040.47;5012085;28;20026;-79
2022/05/07 01:53:07;;;;;;;7.50;4.68;;;;;;;10.42;100.00;102038.41;5019007;28;20045;-79
2022/05/07 01:55:33;;;;;;;9.23;4.43;;;;;;;10.34;100.00;102033.75;5038591;28;20478;-79
2022/05/07 01:57:59;;;;;;;10.90;4.30;;;;;;;10.29;100.00;102033.19;5017236;28;20042;-78
2022/05/07 02:00:25;;;;;;;8.48;4.50;;;;;;;10.22;100.00;102031.97;5024598;28;20037;-78
2022/05/07 02:02:51;;;;;;;6.70;4.00;;;;;;;10.11;100.00;102022.25;5039825;28;20062;-78
2022/05/07 02:05:25;;;;;;;6.13;4.38;;;;;;;10.11;100.00;102041.47;5000513;28;20033;-78
2022/05/07 02:07:51;;;;;;;8.38;4.00;;;;;;;9.96;100.00;102023.38;5026733;28;20058;-77
2022/05/07 02:10:17;;;;;;;6.97;4.05;;;;;;;10.02;100.00;102038.66;4996333;28;20033;-77
2022/05/07 02:12:42;;;;;;;9.85;4.25;;;;;;;9.94;100.00;102034.84;5029797;28;20033;-79
2022/05/07 02:15:09;;;;;;;5.80;3.92;;;;;;;9.89;100.00;102033.50;5024699;28;20125;-78
2022/05/07 02:17:35;;;;;;;10.25;4.15;;;;;;;9.93;100.00;102038.38;5015247;28;20030;-76
2022/05/07 02:20:03;;;;;;;7.00;3.90;;;;;;;9.93;100.00;102034.94;5030473;28;20038;-78
2022/05/07 02:22:30;;;;;;;10.68;4.35;;;;;;;9.94;100.00;102041.84;5023247;28;20541;-77
2022/05/07 02:24:58;;;;;;;10.45;4.25;;;;;;;9.97;100.00;102044.25;5010460;28;20068;-78
2022/05/07 02:27:25;;;;;;;10.18;4.28;;;;;;;9.93;100.00;102035.78;5009322;28;20033;-79
2022/05/07 02:29:54;;;;;;;9.68;4.30;;;;;;;9.92;100.00;102036.69;5011046;28;20038;-79
2022/05/07 02:32:22;;;;;;;7.28;4.05;;;;;;;9.90;100.00;102043.84;5033674;28;20490;-78
2022/05/07 02:34:48;;;;;;;5.40;4.38;;;;;;;9.83;100.00;102039.16;4994711;28;20045;-78
2022/05/07 02:37:20;;;;;;;9.77;4.38;;;;;;;9.84;100.00;102035.59;5011676;28;20546;-80
2022/05/07 02:39:50;;;;;;;7.15;3.80;;;;;;;9.85;100.00;102035.50;5009413;28;20061;-80
2022/05/07 02:45:11;;;;;;;6.72;4.15;;;;;;;9.91;100.00;102034.22;5010996;28;20060;-78
2022/05/07 02:47:39;;;;;;;7.32;4.40;;;;;;;9.77;100.00;102026.50;5004212;28;20060;-79
2022/05/07 02:50:07;;;;;;;9.80;5.50;;;;;;;9.86;100.00;102038.94;5004095;28;20041;-78
2022/05/07 02:52:33;;;;;;;10.43;4.65;;;;;;;9.70;100.00;102029.56;5033686;28;20100;-78
2022/05/07 02:55:01;;;;;;;10.27;5.18;;;;;;;9.66;100.00;102030.72;5011306;28;20466;-79
2022/05/07 02:57:27;;;;;;;9.13;5.40;;;;;;;9.60;100.00;102032.94;5013298;28;20084;-78
2022/05/07 02:59:54;;;;;;;15.60;7.22;;;;;;;9.44;100.00;102034.03;5028959;28;20494;-79
2022/05/07 03:02:20;;;;;;;13.38;7.43;;;;;;;9.43;100.00;102024.47;5031517;28;20041;-78
2022/05/07 03:04:47;;;;;;;18.25;8.30;;;;;;;9.47;100.00;102028.53;5013278;28;20033;-78
2022/05/07 03:07:16;;;;;;;20.42;9.70;;;;;;;9.48;100.00;102037.25;5025943;28;20083;-79
2022/05/07 03:09:43;;;;;;;20.27;11.02;;;;;;;9.38;100.00;102028.38;5025964;28;20037;-80
2022/05/07 03:12:11;;;;;;;17.13;10.50;;;;;;;9.41;100.00;102041.25;5011615;28;20060;-78
2022/05/07 03:14:38;;;;;;;18.80;12.02;;;;;;;9.30;100.00;102026.28;5011933;28;20044;-79
2022/05/07 03:17:05;;;;;;;15.48;11.43;;;;;;;9.32;100.00;102027.88;5027421;28;20029;-79
2022/05/07 03:19:31;;;;;;;20.55;12.40;;;;;;;9.28;100.00;102026.38;5011582;28;20037;-78
2022/05/07 03:21:57;;;;;;;19.63;13.35;;;;;;;9.29;100.00;102041.16;5013539;28;20495;-79
2022/05/07 03:24:25;;;;;;;18.73;11.90;;;;;;;9.33;100.00;102032.16;5010127;28;20034;-78
2022/05/07 03:26:51;;;;;;;20.17;11.93;;;;;;;9.33;100.00;102036.56;5028035;28;20406;-77
2022/05/07 03:29:21;;;;;;;17.00;11.60;;;;;;;9.46;100.00;102041.78;5030435;28;20041;-80
2022/05/07 03:31:52;;;;;;;15.05;10.85;;;;;;;9.48;100.00;102037.25;5029096;28;20478;-78
2022/05/07 03:34:20;;;;;;;18.27;11.45;;;;;;;9.51;100.00;102042.28;5023901;28;20208;-77
2022/05/07 03:36:45;;;;;;;14.27;9.60;;;;;;;9.54;100.00;102036.81;5003441;28;20101;-78
2022/05/07 03:39:13;;;;;;;14.57;10.32;;;;;;;9.50;100.00;102043.22;5026818;28;20033;-78
2022/05/07 03:41:40;;;;;;;15.27;9.93;;;;;;;9.50;100.00;102040.63;5008323;28;20048;-79
2022/05/07 03:44:08;;;;;;;13.80;9.30;;;;;;;9.43;100.00;102032.34;5019607;28;20069;-78
2022/05/07 03:46:34;;;;;;;13.05;9.95;;;;;;;9.53;100.00;102033.38;5014472;28;20065;-79
2022/05/07 03:49:01;;;;;;;13.70;9.25;;;;;;;9.52;100.00;102038.72;5033530;28;20558;-75
2022/05/07 03:51:29;;;;;;;11.77;9.20;;;;;;;9.43;100.00;102032.34;5006443;28;20034;-78
2022/05/07 03:54:05;;;;;;;13.38;8.70;;;;;;;9.36;100.00;102028.47;5006386;28;20045;-78
2022/05/07 03:56:31;;;;;;;12.63;8.38;;;;;;;9.39;100.00;102024.81;5009065;28;20061;-76
2022/05/07 03:58:58;;;;;;;12.13;8.73;;;;;;;9.42;100.00;102040.28;5012254;28;20038;-79
2022/05/07 04:01:44;;;;;;;11.35;8.88;;;;;;;9.35;100.00;102029.41;5004809;28;20132;-81
2022/05/07 04:04:10;;;;;;;12.23;9.05;;;;;;;9.37;100.00;102035.38;5012416;28;20148;-78
2022/05/07 04:06:37;;;;;;;12.82;9.18;;;;;;;9.37;100.00;102035.38;5002679;28;20128;-79
2022/05/07 04:09:03;;;;;;;15.82;9.65;;;;;;;9.33;100.00;102037.38;5030233;28;20125;-80
2022/05/07 04:11:28;;;;;;;13.70;9.57;;;;;;;9.25;100.00;102026.63;5025367;28;20117;-77
2022/05/07 04:13:57;;;;;;;14.07;10.20;;;;;;;9.30;100.00;102039.38;5019294;28;20049;-79
2022/05/07 04:16:24;;;;;;;13.65;9.55;;;;;;;9.27;100.00;102039.59;5016618;28;20029;-77
2022/05/07 04:19:01;;;;;;;13.68;9.30;;;;;;;9.28;100.00;102044.72;4994417;28;20133;-78
2022/05/07 04:21:27;;;;;;;15.48;9.85;;;;;;;9.32;100.00;102051.44;5002765;28;20542;-77
2022/05/07 04:24:01;;;;;;;13.52;9.60;;;;;;;9.34;100.00;102046.94;5013708;28;20041;-78
2022/05/07 04:26:30;;;;;;;15.88;9.82;;;;;;;9.32;100.00;102038.34;5001245;28;20561;-80
2022/05/07 04:28:56;;;;;;;15.05;9.20;;;;;;;9.39;100.00;102043.97;5005305;28;20118;-79
2022/05/07 04:31:23;;;;;;;14.40;10.55;;;;;;;9.49;100.00;102054.63;5007004;28;20234;-79
2022/05/07 04:33:56;;;;;;;16.48;10.57;;;;;;;9.49;100.00;102052.88;5022469;28;20043;-79
2022/05/07 04:36:22;;;;;;;15.52;10.55;;;;;;;9.47;100.00;102044.25;5020857;28;20021;-80
2022/05/07 04:38:48;;;;;;;12.82;10.68;;;;;;;9.57;100.00;102051.47;5009490;28;20063;-78
2022/05/07 04:41:21;;;;;;;14.25;11.43;;;;;;;9.67;100.00;102053.34;5007655;28;20037;-79
2022/05/07 04:43:47;;;;;;;16.38;10.88;;;;;;;9.73;100.00;102052.06;5027204;28;20037;-78
2022/05/07 04:46:14;;;;;;;17.30;12.27;;;;;;;9.82;100.00;102038.31;5023261;28;20029;-78
2022/05/07 04:48:41;;;;;;;16.73;11.90;;;;;;;9.92;100.00;102051.59;5025880;28;20041;-79
2022/05/07 04:51:08;;;;;;;16.05;11.63;;;;;;;9.92;100.00;102044.56;5010939;28;20047;-79
2022/05/07 04:53:39;;;;;;;17.80;11.48;;;;;;;9.87;100.00;102054.56;4995446;28;20033;-80
2022/05/07 04:56:12;;;;;;;14.07;11.02;;;;;;;9.85;100.00;102069.56;5013578;28;20475;-78
2022/05/07 04:58:47;;;;;;;15.40;11.13;;;;;;;9.82;100.00;102066.31;5038136;28;20105;-79
2022/05/07 05:01:13;;;;;;;15.75;11.32;;;;;;;9.90;100.00;102054.31;4998210;28;20503;-80
2022/05/07 05:03:45;;;;;;;15.43;11.43;;;;;;;10.02;100.00;102050.00;5013141;28;20095;-77
2022/05/07 05:06:19;;;;;;;17.85;12.70;;;;;;;10.17;100.00;102058.56;5007972;28;20342;-78
2022/05/07 05:08:53;;;;;;;20.52;13.55;;;;;;;10.31;100.00;102057.56;5018859;28;20092;-80
2022/05/07 05:11:20;;;;;;;18.08;12.93;;;;;;;10.47;100.00;102052.00;5027486;28;20041;-77
2022/05/07 05:13:45;;;;;;;21.05;13.55;;;;;;;10.66;100.00;102061.97;5011330;28;20029;-80
2022/05/07 05:16:11;;;;;;;19.88;13.65;;;;;;;10.85;100.00;102049.16;5012352;28;20116;-78
2022/05/07 05:18:46;;;;;;;18.48;12.85;;;;;;;11.20;100.00;102065.78;5013206;28;20471;-81
2022/05/07 05:21:16;;;;;;;16.27;11.32;;;;;;;11.54;100.00;102071.88;5011567;28;20060;-79
2022/05/07 05:24:14;;;;;;;16.80;11.80;;;;;;;11.82;100.00;102070.53;5010040;28;20112;-80
2022/05/07 05:26:40;;;;;;;15.40;11.93;;;;;;;12.02;100.00;102078.66;5029007;28;20126;-79
2022/05/07 05:29:11;;;;;;;15.77;11.18;;;;;;;12.10;100.00;102080.66;5010476;28;20041;-78
2022/05/07 05:31:38;;;;;;;22.85;11.68;;;;;;;12.21;100.00;102084.09;5003507;28;20037;-78
2022/05/07 05:34:13;;;;;;;18.75;12.07;;;;;;;12.26;100.00;102081.06;5021055;28;20089;-81
2022/05/07 05:36:50;;;;;;;16.35;12.32;;;;;;;12.40;100.00;102088.69;4996176;28;20121;-80
2022/05/07 05:39:16;;;;;;;18.42;13.57;;;;;;;12.42;100.00;102091.22;5014302;28;20033;-78
2022/05/07 05:41:44;;;;;;;19.33;13.30;;;;;;;12.44;100.00;102094.53;5013418;28;20119;-79
2022/05/07 05:44:11;;;;;;;22.08;13.65;;;;;;;12.51;100.00;102086.97;5014398;28;20080;-79
2022/05/07 05:46:37;;;;;;;16.10;12.70;;;;;;;12.58;100.00;102090.75;5015068;28;20041;-79
2022/05/07 05:49:04;;;;;;;20.80;15.38;;;;;;;12.59;100.00;102097.72;5014716;28;20041;-78
2022/05/07 05:51:31;;;;;;;21.20;14.93;;;;;;;12.58;100.00;102099.53;4998502;28;20561;-81
2022/05/07 05:53:57;;;;;;;28.13;17.70;;;;;;;12.66;100.00;102093.63;5004394;28;20117;-79
2022/05/07 05:56:23;;;;;;;26.92;18.10;;;;;;;12.74;100.00;102096.44;5011186;28;20025;-79
2022/05/07 05:58:55;;;;;;;27.65;17.77;;;;;;;12.83;100.00;102111.47;5015763;28;20037;-80
2022/05/07 06:01:27;;;;;;;25.45;17.88;;;;;;;13.03;100.00;102103.69;5027012;28;20076;-79
2022/05/07 06:04:16;;;;;;;29.30;19.25;;;;;;;13.11;100.00;102106.53;5027481;28;20052;-78
2022/05/07 06:06:42;;;;;;;29.08;19.60;;;;;;;13.20;100.00;102113.66;5035113;28;20038;-81
2022/05/07 06:09:09;;;;;;;29.13;19.52;;;;;;;13.22;100.00;102110.88;5015588;28;20034;-80
2022/05/07 06:11:35;;;;;;;30.80;19.85;;;;;;;13.32;100.00;102106.53;5034509;28;20426;-80
2022/05/07 06:14:02;;;;;;;26.38;18.45;;;;;;;13.35;100.00;102105.41;5001998;28;20038;-79
2022/05/07 06:16:29;;;;;;;34.00;20.60;;;;;;;13.41;100.00;102110.16;5024582;28;20107;-81
2022/05/07 06:18:57;;;;;;;29.67;20.27;;;;;;;13.46;100.00;102110.59;5019096;28;20809;-79
2022/05/07 06:21:26;;;;;;;32.92;19.70;;;;;;;13.57;100.00;102114.97;5014863;28;20037;-80
2022/05/07 06:23:52;;;;;;;27.75;18.40;;;;;;;13.56;100.00;102113.28;5013107;28;20069;-80
2022/05/07 06:29:09;;;;;;;27.52;18.25;;;;;;;13.71;100.00;102119.88;5016279;28;20517;-81
2022/05/07 06:31:38;;;;;;;27.80;18.40;;;;;;;13.73;100.00;102112.66;5009888;28;20046;-80
2022/05/07 06:34:04;;;;;;;28.42;18.77;;;;;;;13.74;100.00;102131.97;5030636;28;20037;-81
2022/05/07 06:36:29;;;;;;;27.90;17.98;;;;;;;13.73;100.00;102123.22;4983975;28;20103;-82
2022/05/07 06:38:55;;;;;;;24.90;17.23;;;;;;;13.85;100.00;102123.13;4997282;28;20639;-83
2022/05/07 06:41:25;;;;;;;28.17;17.83;;;;;;;13.94;99.80;102114.41;5014070;28;20037;-82
2022/05/07 06:43:58;;;;;;;21.75;15.65;;;;;;;13.94;100.00;102112.59;5015464;28;20095;-82
2022/05/07 06:46:29;;;;;;;26.45;16.35;;;;;;;14.16;98.37;102121.22;5015418;28;20048;-82
2022/05/07 06:49:01;;;;;;;25.42;15.75;;;;;;;14.23;98.51;102126.81;5022290;28;20118;-81
2022/05/07 06:51:37;;;;;;;24.52;15.63;;;;;;;14.34;95.71;102131.97;5019962;28;20048;-82
2022/05/07 06:54:02;;;;;;;26.58;15.35;;;;;;;14.37;96.43;102129.03;5029408;28;20040;-83
2022/05/07 06:56:29;;;;;;;19.92;13.57;;;;;;;14.52;98.29;102129.47;5017825;28;20030;-81
2022/05/07 06:58:55;;;;;;;20.13;11.50;;;;;;;14.63;93.53;102128.53;5011893;28;20045;-81
2022/05/07 07:01:20;;;;;;;16.92;11.02;;;;;;;14.63;92.44;102128.53;5037125;28;20030;-82
2022/05/07 07:03:46;;;;;;;16.08;9.98;;;;;;;14.67;90.54;102128.09;5010774;28;20055;-82
2022/05/07 07:06:11;;;;;;;13.88;8.40;;;;;;;14.98;89.13;102141.16;4998383;28;20037;-81
2022/05/07 07:08:37;;;;;;;15.98;8.20;;;;;;;14.95;87.95;102136.97;5021685;28;20566;-81
2022/05/07 07:11:04;;;;;;;13.48;8.30;;;;;;;14.95;88.60;102150.19;5016178;28;20033;-83
2022/05/07 07:13:30;;;;;;;16.05;7.18;;;;;;;14.87;89.10;102150.06;5015815;28;20713;-79
2022/05/07 07:15:55;;;;;;;11.40;6.55;;;;;;;14.81;87.51;102141.88;5027762;28;20036;-78
2022/05/07 07:18:21;;;;;;;12.40;7.05;;;;;;;14.83;87.94;102146.03;5033004;28;20033;-82
2022/05/07 07:20:49;;;;;;;12.13;7.95;;;;;;;15.02;89.00;102155.75;5017614;28;20036;-82
2022/05/07 07:23:15;;;;;;;12.40;7.57;;;;;;;15.29;85.61;102154.16;5015763;28;20368;-81
2022/05/07 07:25:42;;;;;;;13.35;7.43;;;;;;;15.70;86.09;102152.06;5019032;28;20056;-79
2022/05/07 07:28:09;;;;;;;13.77;6.95;;;;;;;15.85;83.81;102163.88;5024120;28;20072;-80
2022/05/07 07:30:35;;;;;;;13.30;6.95;;;;;;;16.21;81.21;102166.59;5023214;28;20033;-78
2022/05/07 07:33:01;;;;;;;13.30;7.30;;;;;;;16.26;78.12;102155.56;5012601;28;20046;-80
2022/05/07 07:35:28;;;;;;;9.85;6.78;;;;;;;16.63;78.90;102166.03;5020448;28;20029;-78
2022/05/07 07:37:54;;;;;;;14.13;7.18;;;;;;;16.78;75.61;102152.22;5028012;28;20026;-76
2022/05/07 07:40:20;;;;;;;13.73;7.15;;;;;;;16.80;77.13;102150.25;4983869;28;20434;-79
2022/05/07 07:42:46;;;;;;;8.25;5.50;;;;;;;17.00;74.73;102165.03;5029876;28;20115;-79
2022/05/07 07:48:03;;;;;;;9.10;4.60;;;;;;;16.91;76.90;102174.75;5029438;28;20041;-78
2022/05/07 07:50:34;;;;;;;11.35;5.10;;;;;;;16.60;74.84;102174.28;5013091;28;20491;-77
2022/05/07 07:53:02;;;;;;;8.20;4.15;;;;;;;16.52;77.49;102182.16;5005620;28;20057;-78
2022/05/07 07:55:29;;;;;;;7.80;3.42;;;;;;;16.68;77.43;102184.94;5030424;28;20494;-77
2022/05/07 07:57:57;;;;;;;8.93;3.60;;;;;;;16.69;79.81;102185.78;5006623;28;20052;-80
2022/05/07 08:00:24;;;;;;;6.15;3.33;;;;;;;16.80;78.02;102190.00;5026532;28;20048;-79
2022/05/07 08:02:55;;;;;;;8.45;3.17;;;;;;;16.60;75.33;102190.16;5010943;28;20069;-81
2022/05/07 08:05:23;;;;;;;4.55;2.75;;;;;;;16.50;76.29;102178.78;5021539;28;20061;-79
2022/05/07 08:13:18;;;;;;;3.92;2.42;;;;;;;16.57;74.83;102182.50;5010145;28;20037;-77
2022/05/07 08:15:45;;;;;;;6.50;3.20;;;;;;;16.91;76.09;102168.59;5025913;28;20590;-77
2022/05/07 08:18:14;;;;;;;5.35;3.10;;;;;;;17.07;72.11;102181.16;5011493;28;20041;-76
2022/05/07 08:20:41;;;;;;;4.47;2.80;;;;;;;17.05;74.47;102180.50;5005127;28;20030;-76
2022/05/07 08:23:08;;;;;;;8.73;4.65;;;;;;;16.96;74.17;102179.59;5011707;28;20291;-79
2022/05/07 08:25:34;;;;;;;7.82;4.72;;;;;;;16.97;72.80;102180.41;5015299;28;20045;-77
2022/05/07 08:28:00;;;;;;;11.35;4.97;;;;;;;16.98;73.77;102174.97;5016815;28;20044;-76
2022/05/07 08:30:27;;;;;;;9.18;4.90;;;;;;;16.97;72.75;102188.34;5012367;28;20263;-77
2022/05/07 08:32:53;;;;;;;10.65;4.47;;;;;;;17.05;77.91;102180.50;5017252;28;20037;-77
2022/05/07 08:35:19;;;;;;;8.65;4.55;;;;;;;17.10;76.81;102186.13;5021214;28;20041;-78
2022/05/07 08:37:45;;;;;;;7.80;4.75;;;;;;;16.96;72.48;102189.38;5026185;28;20088;-77
2022/05/07 08:40:14;;;;;;;8.25;4.72;;;;;;;17.02;72.77;102192.22;5023691;28;20044;-77
2022/05/07 08:42:40;;;;;;;12.75;4.68;;;;;;;17.12;75.67;102190.31;5015759;28;20050;-79
2022/05/07 08:45:06;;;;;;;8.07;4.68;;;;;;;17.12;77.18;102195.63;5023774;28;20063;-78
2022/05/07 08:47:32;;;;;;;9.35;4.15;;;;;;;17.06;73.75;102195.38;5009193;28;20026;-81
2022/05/07 08:49:57;;;;;;;6.32;3.88;;;;;;;17.08;77.56;102196.06;4996910;28;20488;-75
2022/05/07 08:52:23;;;;;;;6.20;3.40;;;;;;;17.13;73.56;102189.31;5001933;28;20065;-79
2022/05/07 08:54:49;;;;;;;6.57;3.60;;;;;;;17.37;73.79;102192.31;5023080;28;20033;-78
2022/05/07 08:57:15;;;;;;;7.15;3.90;;;;;;;17.42;73.33;102198.81;5021577;28;20469;-78
2022/05/07 08:59:43;;;;;;;9.20;4.43;;;;;;;17.51;72.74;102189.88;5022388;28;20360;-75
2022/05/07 09:02:09;;;;;;;6.45;4.13;;;;;;;17.63;70.92;102197.56;5028431;28;20125;-78
2022/05/07 09:04:38;;;;;;;5.90;3.72;;;;;;;17.75;72.54;102206.13;5019279;28;20026;-78
2022/05/07 09:07:14;;;;;;;7.88;3.78;;;;;;;17.68;71.58;102198.78;5022938;28;20116;-76
2022/05/07 09:09:51;;;;;;;4.45;3.42;;;;;;;17.70;75.42;102201.28;5011877;28;20050;-80
2022/05/07 09:12:23;;;;;;;9.85;3.70;;;;;;;17.75;73.01;102203.47;5017718;28;20124;-78
2022/05/07 09:14:48;;;;;;;6.55;4.00;;;;;;;17.74;73.61;102199.97;5012596;28;20042;-79
2022/05/07 09:17:18;;;;;;;6.20;3.80;;;;;;;17.56;72.61;102199.22;5007813;28;20136;-79
2022/05/07 09:19:43;;;;;;;10.23;3.75;;;;;;;17.65;73.22;102196.47;5035541;28;20030;-78
2022/05/07 09:22:11;;;;;;;6.85;3.95;;;;;;;17.75;71.61;102204.28;5038217;28;20049;-80
2022/05/07 09:24:37;;;;;;;9.15;3.80;;;;;;;17.79;71.62;102197.66;5005508;28;20041;-76
2022/05/07 09:27:04;;;;;;;8.15;3.78;;;;;;;17.92;77.66;102197.28;5046275;28;20042;-77
2022/05/07 09:29:32;;;;;;;7.57;3.30;;;;;;;18.16;70.22;102193.03;5023060;28;20480;-78
2022/05/07 09:32:08;;;;;;;7.43;3.60;;;;;;;18.26;71.55;102204.34;5031314;28;20037;-77
2022/05/07 09:37:37;;;;;;;7.82;3.97;;;;;;;18.00;67.16;102205.25;5008483;28;20029;-78
2022/05/07 09:40:08;;;;;;;7.68;3.10;;;;;;;17.72;70.75;102204.59;5036774;28;20041;-76
2022/05/07 09:42:34;;;;;;;7.03;2.85;;;;;;;17.92;69.63;102202.56;5007864;28;20029;-79
2022/05/07 09:45:01;;;;;;;7.43;3.50;;;;;;;17.77;67.78;102202.31;5021500;28;20131;-77
2022/05/07 09:47:27;;;;;;;8.32;3.58;;;;;;;17.74;70.65;102193.84;5008427;28;20030;-77
2022/05/07 09:57:30;;;;;;;6.80;3.97;;;;;;;18.19;68.11;102203.34;5017258;28;20427;-80
2022/05/07 09:58:10;;;;;;;7.55;3.85;;;;;;;18.36;67.78;102199.72;5030180;28;20037;-78
2022/05/07 10:01:01;;;;;;;6.03;3.40;;;;;;;18.41;68.39;102199.25;5027007;28;20036;-78
2022/05/07 10:03:59;;;;;;;6.03;3.22;;;;;;;18.81;67.40;102202.97;5024965;28;20483;-78
2022/05/07 10:07:07;;;;;;;7.57;3.50;;;;;;;18.88;64.65;102201.31;5031098;28;20522;-77
2022/05/07 10:09:42;;;;;;;8.68;3.90;;;;;;;19.15;65.32;102197.47;5014758;28;20088;-78
2022/05/07 10:12:10;;;;;;;6.80;4.05;;;;;;;18.96;64.60;102198.66;5018878;28;20037;-80
2022/05/07 10:14:36;;;;;;;9.00;4.43;;;;;;;18.72;68.53;102201.28;5030129;28;20175;-78
2022/05/07 10:17:05;;;;;;;8.40;3.95;;;;;;;18.82;68.14;102202.00;5030468;28;20485;-76
2022/05/07 10:19:39;;;;;;;9.88;4.07;;;;;;;18.79;66.76;102199.63;5023212;28;20475;-78
2022/05/07 10:22:23;;;;;;;5.82;3.10;;;;;;;18.90;65.64;102206.47;5030490;28;20026;-76
2022/05/07 10:25:07;;;;;;;4.53;2.45;;;;;;;18.94;64.28;102200.66;5028978;28;20793;-79
2022/05/07 10:27:38;;;;;;;3.88;2.35;;;;;;;19.39;67.43;102201.94;4990966;28;20077;-76
2022/05/07 10:30:08;;;;;;;5.90;2.78;;;;;;;19.23;62.62;102205.47;5037309;28;20033;-78
2022/05/07 10:32:58;;;;;;;6.63;2.40;;;;;;;19.28;61.49;102206.78;5027479;28;20033;-79
2022/05/07 10:35:39;;;;;;;5.45;2.55;;;;;;;19.49;60.95;102201.75;5031335;28;20030;-79
2022/05/07 10:38:07;;;;;;;3.35;2.17;;;;;;;19.98;61.04;102201.59;5021155;28;20040;-78
2022/05/07 10:40:32;;;;;;;4.32;2.20;;;;;;;19.93;61.46;102197.81;5033096;28;20036;-82
2022/05/07 10:42:58;;;;;;;3.95;2.60;;;;;;;19.58;62.75;102199.91;5028227;28;20041;-79
2022/05/07 10:45:24;;;;;;;4.43;2.50;;;;;;;20.03;60.08;102201.91;5018692;28;20100;-76
2022/05/07 10:47:54;;;;;;;5.35;2.72;;;;;;;20.55;56.83;102205.81;5017463;28;20038;-77
2022/05/07 10:50:22;;;;;;;4.40;2.83;;;;;;;20.77;58.44;102198.00;5013259;28;20068;-77
2022/05/07 10:52:55;;;;;;;6.38;3.05;;;;;;;20.84;59.64;102190.13;5035581;28;20035;-79
2022/05/07 10:55:26;;;;;;;4.80;2.13;;;;;;;21.17;55.85;102185.31;5020857;28;20406;-79
2022/05/07 10:57:52;;;;;;;6.07;2.40;;;;;;;21.03;55.49;102199.47;5011799;28;20403;-81
2022/05/07 11:00:21;;;;;;;4.07;2.22;;;;;;;21.18;56.49;102186.97;5018630;28;20056;-78
2022/05/07 11:02:49;;;;;;;4.50;2.60;;;;;;;21.03;58.53;102194.94;5028617;28;20052;-80
2022/05/07 11:05:15;;;;;;;7.45;3.30;;;;;;;20.82;56.77;102194.81;5013248;28;20029;-80
2022/05/07 11:07:43;;;;;;;6.00;3.17;;;;;;;20.76;60.12;102199.03;5030481;28;20037;-79
2022/05/07 11:10:10;;;;;;;5.10;3.22;;;;;;;20.98;57.97;102203.50;5018983;28;20177;-79
2022/05/07 11:12:38;;;;;;;7.72;3.78;;;;;;;20.87;55.54;102195.09;5019834;28;20045;-77
2022/05/07 11:15:07;;;;;;;6.38;3.53;;;;;;;20.14;60.40;102199.88;5027014;28;20064;-79
2022/05/07 11:17:35;;;;;;;7.00;2.90;;;;;;;20.03;57.79;102207.25;5025457;28;20033;-76
2022/05/07 11:20:03;;;;;;;6.32;2.42;;;;;;;20.11;57.98;102206.38;5027628;28;20029;-77
2022/05/07 11:22:32;;;;;;;7.93;3.25;;;;;;;20.06;57.33;102198.09;5026255;28;20036;-77
2022/05/07 11:24:59;;;;;;;5.35;2.83;;;;;;;20.19;58.31;102198.38;5018772;28;20084;-76
2022/05/07 11:27:32;;;;;;;9.50;4.00;;;;;;;20.48;57.69;102202.19;5001730;28;20038;-77
2022/05/07 11:30:04;;;;;;;12.52;4.57;;;;;;;20.84;59.13;102198.94;5008700;28;20486;-79
2022/05/07 11:32:41;;;;;;;7.60;4.63;;;;;;;20.87;58.19;102197.75;5017945;28;20037;-76
2022/05/07 11:35:08;;;;;;;6.35;4.15;;;;;;;20.68;56.10;102199.06;5010486;28;20044;-81
2022/05/07 11:37:40;;;;;;;5.53;3.90;;;;;;;20.38;57.66;102197.09;5031148;28;20036;-82
2022/05/07 11:40:07;;;;;;;11.40;4.50;;;;;;;20.43;59.72;102193.88;5013718;28;20037;-78
2022/05/07 11:42:38;;;;;;;7.40;4.25;;;;;;;20.12;61.01;102194.72;5009594;28;20045;-77
2022/05/07 11:45:31;;;;;;;8.40;4.38;;;;;;;20.14;58.36;102189.25;5026358;28;20514;-77
2022/05/07 11:48:06;;;;;;;8.98;4.45;;;;;;;19.77;61.51;102185.41;5028187;28;20491;-78
2022/05/07 11:50:40;;;;;;;7.70;4.57;;;;;;;19.63;61.54;102178.94;5019612;28;20041;-77
2022/05/07 11:53:14;;;;;;;9.00;4.57;;;;;;;19.51;61.86;102178.44;5028738;28;20495;-77